VTBD METAR and TAF | Updated Today

VTBD METAR

Don Mueang International Airport

Observation time: 19 min. ago

VTBD 080530Z VRB03KT CAVOK 29/14 Q1015 NOSIG

Need help? Read our tutorial on how to read METARs or read the parsed version below.

Don Mueang International Airport (VTBD) METAR

  • Weather conditions on Wed, 08 Dec 2021 05:30:00 +0000 (19 min. ago):
  • Present conditions: Dry
  • Clouds: Clear skies
  • Visibility: Greater than 10 km
  • Wind: Variable at 3 knots
  • Temperature: 29 celsius
  • Dew point: 14 celsius
  • Pressure: 1015 millibars
  • Remarks: None


Useful to know...

VTBD TAF

Don Mueang International Airport

TAF VTBD 072300Z 0800/0906 03005KT 9999 FEW040
Observation time: 6:49 hr. ago
Need help? Read our tutorial on how to read TAFs or read the parsed version below.

Parsed version of TAF for Don Mueang International Airport (VTBD)

  • From 08 December at 00:00 UTC, to day 09 of the month at 06:00 UTC
  • Clouds: A few at 1219 meters
  • Visibility: Greater than 10 km
  • Wind: 30 degrees at 5